sensor_id;sensor_type;location;lat;lon;timestamp;P1;durP1;ratioP1;P2;durP2;ratioP2
71648;SDS011;70112;45.624;11.760;2023-07-31T00:00:14;3.40;;;3.00;;
71648;SDS011;70112;45.624;11.760;2023-07-31T00:02:39;4.30;;;3.30;;
71648;SDS011;70112;45.624;11.760;2023-07-31T00:05:05;5.20;;;2.80;;
71648;SDS011;70112;45.624;11.760;2023-07-31T00:07:32;4.40;;;2.50;;
71648;SDS011;70112;45.624;11.760;2023-07-31T00:09:57;4.80;;;2.90;;
71648;SDS011;70112;45.624;11.760;2023-07-31T00:12:23;4.20;;;3.00;;
71648;SDS011;70112;45.624;11.760;2023-07-31T00:14:49;5.50;;;3.00;;
71648;SDS011;70112;45.624;11.760;2023-07-31T00:17:16;8.10;;;3.10;;
71648;SDS011;70112;45.624;11.760;2023-07-31T00:19:42;3.60;;;2.80;;
71648;SDS011;70112;45.624;11.760;2023-07-31T00:22:07;4.60;;;2.90;;
71648;SDS011;70112;45.624;11.760;2023-07-31T00:24:33;5.70;;;3.10;;
71648;SDS011;70112;45.624;11.760;2023-07-31T00:26:58;6.90;;;3.00;;
71648;SDS011;70112;45.624;11.760;2023-07-31T00:29:24;6.70;;;3.30;;
71648;SDS011;70112;45.624;11.760;2023-07-31T00:31:49;4.00;;;3.00;;
71648;SDS011;70112;45.624;11.760;2023-07-31T00:34:15;9.30;;;3.10;;
71648;SDS011;70112;45.624;11.760;2023-07-31T00:36:40;3.40;;;3.10;;
71648;SDS011;70112;45.624;11.760;2023-07-31T00:39:06;4.70;;;2.90;;
71648;SDS011;70112;45.624;11.760;2023-07-31T00:41:31;3.70;;;2.70;;
71648;SDS011;70112;45.624;11.760;2023-07-31T00:43:57;6.00;;;2.60;;
71648;SDS011;70112;45.624;11.760;2023-07-31T00:46:22;7.90;;;2.70;;
71648;SDS011;70112;45.624;11.760;2023-07-31T00:48:48;6.80;;;2.60;;
71648;SDS011;70112;45.624;11.760;2023-07-31T00:51:14;5.40;;;2.80;;
71648;SDS011;70112;45.624;11.760;2023-07-31T00:53:40;5.40;;;3.10;;
71648;SDS011;70112;45.624;11.760;2023-07-31T00:56:06;5.20;;;3.10;;
71648;SDS011;70112;45.624;11.760;2023-07-31T00:58:32;3.80;;;2.70;;
71648;SDS011;70112;45.624;11.760;2023-07-31T01:00:58;3.40;;;3.10;;
71648;SDS011;70112;45.624;11.760;2023-07-31T01:03:23;5.30;;;3.10;;
71648;SDS011;70112;45.624;11.760;2023-07-31T01:12:03;3.50;;;3.20;;
71648;SDS011;70112;45.624;11.760;2023-07-31T01:14:29;3.50;;;3.10;;
71648;SDS011;70112;45.624;11.760;2023-07-31T01:16:55;3.60;;;3.30;;
71648;SDS011;70112;45.624;11.760;2023-07-31T01:19:23;3.80;;;3.40;;
71648;SDS011;70112;45.624;11.760;2023-07-31T01:27:53;8.40;;;3.50;;
71648;SDS011;70112;45.624;11.760;2023-07-31T01:30:27;5.30;;;3.30;;
71648;SDS011;70112;45.624;11.760;2023-07-31T01:32:56;5.80;;;3.80;;
71648;SDS011;70112;45.624;11.760;2023-07-31T01:35:22;4.30;;;3.40;;
71648;SDS011;70112;45.624;11.760;2023-07-31T01:37:48;5.40;;;3.60;;
71648;SDS011;70112;45.624;11.760;2023-07-31T01:40:14;4.60;;;3.30;;
71648;SDS011;70112;45.624;11.760;2023-07-31T01:42:39;6.10;;;3.40;;
71648;SDS011;70112;45.624;11.760;2023-07-31T01:45:05;5.10;;;3.40;;
71648;SDS011;70112;45.624;11.760;2023-07-31T01:47:31;6.20;;;4.00;;
71648;SDS011;70112;45.624;11.760;2023-07-31T01:49:57;4.00;;;3.60;;
71648;SDS011;70112;45.624;11.760;2023-07-31T01:52:22;4.10;;;3.50;;
71648;SDS011;70112;45.624;11.760;2023-07-31T01:54:48;5.30;;;4.40;;
71648;SDS011;70112;45.624;11.760;2023-07-31T01:57:13;5.70;;;3.60;;
71648;SDS011;70112;45.624;11.760;2023-07-31T01:59:39;4.40;;;3.40;;
71648;SDS011;70112;45.624;11.760;2023-07-31T02:02:04;6.10;;;3.90;;
71648;SDS011;70112;45.624;11.760;2023-07-31T02:04:30;4.70;;;3.70;;
71648;SDS011;70112;45.624;11.760;2023-07-31T02:06:56;4.30;;;3.50;;
71648;SDS011;70112;45.624;11.760;2023-07-31T02:09:21;4.40;;;3.40;;
71648;SDS011;70112;45.624;11.760;2023-07-31T02:11:47;4.00;;;3.60;;
71648;SDS011;70112;45.624;11.760;2023-07-31T02:14:12;4.50;;;3.50;;
71648;SDS011;70112;45.624;11.760;2023-07-31T02:16:37;4.50;;;3.50;;
71648;SDS011;70112;45.624;11.760;2023-07-31T02:19:03;3.60;;;3.20;;
71648;SDS011;70112;45.624;11.760;2023-07-31T02:21:28;5.30;;;3.70;;
71648;SDS011;70112;45.624;11.760;2023-07-31T02:23:54;4.30;;;3.50;;
71648;SDS011;70112;45.624;11.760;2023-07-31T02:26:20;9.20;;;3.80;;
71648;SDS011;70112;45.624;11.760;2023-07-31T02:28:45;5.00;;;3.90;;
71648;SDS011;70112;45.624;11.760;2023-07-31T02:31:11;5.50;;;3.50;;
71648;SDS011;70112;45.624;11.760;2023-07-31T02:33:36;6.00;;;3.80;;
71648;SDS011;70112;45.624;11.760;2023-07-31T02:36:02;7.70;;;3.70;;
71648;SDS011;70112;45.624;11.760;2023-07-31T02:38:28;4.40;;;4.00;;
71648;SDS011;70112;45.624;11.760;2023-07-31T02:40:53;5.60;;;3.80;;
71648;SDS011;70112;45.624;11.760;2023-07-31T02:43:19;5.50;;;4.00;;
71648;SDS011;70112;45.624;11.760;2023-07-31T02:45:44;6.00;;;4.10;;
71648;SDS011;70112;45.624;11.760;2023-07-31T02:48:09;5.80;;;4.00;;
71648;SDS011;70112;45.624;11.760;2023-07-31T02:50:35;5.60;;;3.80;;
71648;SDS011;70112;45.624;11.760;2023-07-31T02:53:00;4.00;;;3.60;;
71648;SDS011;70112;45.624;11.760;2023-07-31T02:55:26;6.00;;;3.80;;
71648;SDS011;70112;45.624;11.760;2023-07-31T02:57:51;5.00;;;3.60;;
71648;SDS011;70112;45.624;11.760;2023-07-31T03:00:17;6.10;;;4.00;;
71648;SDS011;70112;45.624;11.760;2023-07-31T03:02:44;4.30;;;3.70;;
71648;SDS011;70112;45.624;11.760;2023-07-31T03:05:09;4.50;;;3.90;;
71648;SDS011;70112;45.624;11.760;2023-07-31T03:07:35;5.10;;;4.30;;
71648;SDS011;70112;45.624;11.760;2023-07-31T03:10:00;4.60;;;4.00;;
71648;SDS011;70112;45.624;11.760;2023-07-31T03:12:27;4.40;;;3.80;;
71648;SDS011;70112;45.624;11.760;2023-07-31T03:14:53;5.70;;;4.10;;
71648;SDS011;70112;45.624;11.760;2023-07-31T03:17:18;4.60;;;4.00;;
71648;SDS011;70112;45.624;11.760;2023-07-31T03:19:43;8.20;;;4.10;;
71648;SDS011;70112;45.624;11.760;2023-07-31T03:22:09;4.50;;;3.90;;
71648;SDS011;70112;45.624;11.760;2023-07-31T03:24:34;4.80;;;4.10;;
71648;SDS011;70112;45.624;11.760;2023-07-31T03:27:00;4.40;;;4.00;;
71648;SDS011;70112;45.624;11.760;2023-07-31T03:29:25;5.80;;;4.00;;
71648;SDS011;70112;45.624;11.760;2023-07-31T03:31:51;4.40;;;4.00;;
71648;SDS011;70112;45.624;11.760;2023-07-31T03:34:16;8.80;;;4.10;;
71648;SDS011;70112;45.624;11.760;2023-07-31T03:36:42;4.70;;;4.20;;
71648;SDS011;70112;45.624;11.760;2023-07-31T03:39:07;4.90;;;4.40;;
71648;SDS011;70112;45.624;11.760;2023-07-31T03:41:33;7.40;;;4.30;;
71648;SDS011;70112;45.624;11.760;2023-07-31T03:43:58;6.00;;;4.40;;
71648;SDS011;70112;45.624;11.760;2023-07-31T03:46:24;4.70;;;4.30;;
71648;SDS011;70112;45.624;11.760;2023-07-31T03:48:50;6.30;;;4.10;;
71648;SDS011;70112;45.624;11.760;2023-07-31T03:51:16;4.60;;;3.60;;
71648;SDS011;70112;45.624;11.760;2023-07-31T03:53:43;7.40;;;4.00;;
71648;SDS011;70112;45.624;11.760;2023-07-31T03:56:09;5.60;;;4.10;;
71648;SDS011;70112;45.624;11.760;2023-07-31T03:58:35;11.60;;;4.30;;
71648;SDS011;70112;45.624;11.760;2023-07-31T04:01:03;4.60;;;4.10;;
71648;SDS011;70112;45.624;11.760;2023-07-31T04:03:29;5.20;;;4.30;;
71648;SDS011;70112;45.624;11.760;2023-07-31T04:05:55;5.60;;;4.30;;
71648;SDS011;70112;45.624;11.760;2023-07-31T04:08:22;5.60;;;4.30;;
71648;SDS011;70112;45.624;11.760;2023-07-31T04:10:47;4.40;;;4.00;;
71648;SDS011;70112;45.624;11.760;2023-07-31T04:13:13;10.20;;;4.50;;
71648;SDS011;70112;45.624;11.760;2023-07-31T04:15:39;5.10;;;3.90;;
71648;SDS011;70112;45.624;11.760;2023-07-31T04:18:06;5.20;;;4.70;;
71648;SDS011;70112;45.624;11.760;2023-07-31T04:20:31;4.50;;;4.00;;
71648;SDS011;70112;45.624;11.760;2023-07-31T04:22:57;4.70;;;4.00;;
71648;SDS011;70112;45.624;11.760;2023-07-31T04:25:22;5.80;;;4.00;;
71648;SDS011;70112;45.624;11.760;2023-07-31T04:27:48;5.30;;;3.60;;
71648;SDS011;70112;45.624;11.760;2023-07-31T04:30:13;4.70;;;3.90;;
71648;SDS011;70112;45.624;11.760;2023-07-31T04:32:39;6.40;;;3.70;;
71648;SDS011;70112;45.624;11.760;2023-07-31T04:35:05;4.30;;;3.90;;
71648;SDS011;70112;45.624;11.760;2023-07-31T04:37:31;5.30;;;3.80;;
71648;SDS011;70112;45.624;11.760;2023-07-31T04:39:56;4.50;;;4.10;;
71648;SDS011;70112;45.624;11.760;2023-07-31T04:42:22;3.80;;;3.50;;
71648;SDS011;70112;45.624;11.760;2023-07-31T04:44:47;4.20;;;3.50;;
71648;SDS011;70112;45.624;11.760;2023-07-31T04:47:13;4.30;;;3.60;;
71648;SDS011;70112;45.624;11.760;2023-07-31T04:49:38;5.40;;;3.80;;
71648;SDS011;70112;45.624;11.760;2023-07-31T04:52:04;4.60;;;3.20;;
71648;SDS011;70112;45.624;11.760;2023-07-31T04:54:30;3.60;;;3.20;;
71648;SDS011;70112;45.624;11.760;2023-07-31T04:56:55;3.40;;;3.10;;
71648;SDS011;70112;45.624;11.760;2023-07-31T04:59:21;4.30;;;3.50;;
71648;SDS011;70112;45.624;11.760;2023-07-31T05:01:46;5.40;;;3.20;;
71648;SDS011;70112;45.624;11.760;2023-07-31T05:04:15;3.70;;;3.20;;
71648;SDS011;70112;45.624;11.760;2023-07-31T05:06:41;4.40;;;3.60;;
71648;SDS011;70112;45.624;11.760;2023-07-31T05:09:07;4.10;;;3.40;;
71648;SDS011;70112;45.624;11.760;2023-07-31T05:11:34;3.80;;;3.40;;
71648;SDS011;70112;45.624;11.760;2023-07-31T05:14:00;5.80;;;3.10;;
71648;SDS011;70112;45.624;11.760;2023-07-31T05:16:26;6.00;;;3.70;;
71648;SDS011;70112;45.624;11.760;2023-07-31T05:18:51;5.10;;;3.20;;
71648;SDS011;70112;45.624;11.760;2023-07-31T05:21:17;12.00;;;4.10;;
71648;SDS011;70112;45.624;11.760;2023-07-31T05:23:42;4.00;;;3.60;;
71648;SDS011;70112;45.624;11.760;2023-07-31T05:26:08;4.50;;;3.40;;
71648;SDS011;70112;45.624;11.760;2023-07-31T05:28:35;6.40;;;3.30;;
71648;SDS011;70112;45.624;11.760;2023-07-31T05:31:02;3.80;;;3.30;;
71648;SDS011;70112;45.624;11.760;2023-07-31T05:33:29;6.50;;;3.20;;
71648;SDS011;70112;45.624;11.760;2023-07-31T05:35:54;3.50;;;2.80;;
71648;SDS011;70112;45.624;11.760;2023-07-31T05:38:20;6.20;;;3.40;;
71648;SDS011;70112;45.624;11.760;2023-07-31T05:40:47;18.20;;;3.70;;
71648;SDS011;70112;45.624;11.760;2023-07-31T05:59:50;4.10;;;3.50;;
71648;SDS011;70112;45.624;11.760;2023-07-31T06:02:16;7.30;;;3.30;;
71648;SDS011;70112;45.624;11.760;2023-07-31T06:04:41;4.00;;;3.10;;
71648;SDS011;70112;45.624;11.760;2023-07-31T06:07:07;6.00;;;2.90;;
71648;SDS011;70112;45.624;11.760;2023-07-31T06:09:32;7.00;;;3.20;;
71648;SDS011;70112;45.624;11.760;2023-07-31T06:11:58;12.10;;;3.30;;
71648;SDS011;70112;45.624;11.760;2023-07-31T06:14:23;3.80;;;3.10;;
71648;SDS011;70112;45.624;11.760;2023-07-31T06:16:49;7.20;;;3.00;;
71648;SDS011;70112;45.624;11.760;2023-07-31T06:19:14;3.60;;;3.30;;
71648;SDS011;70112;45.624;11.760;2023-07-31T06:21:40;6.20;;;3.40;;
71648;SDS011;70112;45.624;11.760;2023-07-31T06:24:07;4.00;;;2.90;;
71648;SDS011;70112;45.624;11.760;2023-07-31T06:26:33;4.00;;;2.60;;
71648;SDS011;70112;45.624;11.760;2023-07-31T06:28:58;5.40;;;2.70;;
71648;SDS011;70112;45.624;11.760;2023-07-31T06:31:24;3.40;;;2.60;;
71648;SDS011;70112;45.624;11.760;2023-07-31T06:33:51;4.90;;;2.90;;
71648;SDS011;70112;45.624;11.760;2023-07-31T06:36:17;3.00;;;2.50;;
71648;SDS011;70112;45.624;11.760;2023-07-31T06:38:43;5.70;;;2.60;;
71648;SDS011;70112;45.624;11.760;2023-07-31T06:41:08;2.70;;;2.30;;
71648;SDS011;70112;45.624;11.760;2023-07-31T06:43:35;3.30;;;2.50;;
71648;SDS011;70112;45.624;11.760;2023-07-31T06:46:06;3.60;;;2.50;;
71648;SDS011;70112;45.624;11.760;2023-07-31T06:48:33;3.40;;;2.30;;
71648;SDS011;70112;45.624;11.760;2023-07-31T06:51:00;4.40;;;2.20;;
71648;SDS011;70112;45.624;11.760;2023-07-31T06:53:26;2.80;;;2.30;;
71648;SDS011;70112;45.624;11.760;2023-07-31T06:55:51;6.80;;;2.70;;
71648;SDS011;70112;45.624;11.760;2023-07-31T06:58:17;3.80;;;2.20;;
71648;SDS011;70112;45.624;11.760;2023-07-31T07:00:42;2.80;;;2.10;;
71648;SDS011;70112;45.624;11.760;2023-07-31T07:03:08;4.60;;;2.00;;
71648;SDS011;70112;45.624;11.760;2023-07-31T07:05:34;3.10;;;2.00;;
71648;SDS011;70112;45.624;11.760;2023-07-31T07:07:59;7.80;;;2.40;;
71648;SDS011;70112;45.624;11.760;2023-07-31T07:10:25;2.30;;;1.80;;
71648;SDS011;70112;45.624;11.760;2023-07-31T07:12:51;5.10;;;2.20;;
71648;SDS011;70112;45.624;11.760;2023-07-31T07:15:16;3.20;;;2.10;;
71648;SDS011;70112;45.624;11.760;2023-07-31T07:17:42;5.50;;;1.90;;
71648;SDS011;70112;45.624;11.760;2023-07-31T07:20:08;5.20;;;2.80;;
71648;SDS011;70112;45.624;11.760;2023-07-31T07:22:34;4.60;;;1.90;;
71648;SDS011;70112;45.624;11.760;2023-07-31T07:24:59;2.30;;;2.10;;
71648;SDS011;70112;45.624;11.760;2023-07-31T07:27:24;3.50;;;2.00;;
71648;SDS011;70112;45.624;11.760;2023-07-31T07:29:51;3.70;;;2.30;;
71648;SDS011;70112;45.624;11.760;2023-07-31T07:32:18;2.20;;;2.00;;
71648;SDS011;70112;45.624;11.760;2023-07-31T07:34:43;4.40;;;2.10;;
71648;SDS011;70112;45.624;11.760;2023-07-31T07:37:09;4.10;;;2.20;;
71648;SDS011;70112;45.624;11.760;2023-07-31T07:39:34;4.10;;;1.90;;
71648;SDS011;70112;45.624;11.760;2023-07-31T07:42:00;2.30;;;1.90;;
71648;SDS011;70112;45.624;11.760;2023-07-31T07:44:25;3.70;;;2.00;;
71648;SDS011;70112;45.624;11.760;2023-07-31T07:46:51;4.80;;;2.00;;
71648;SDS011;70112;45.624;11.760;2023-07-31T07:49:17;4.00;;;1.90;;
71648;SDS011;70112;45.624;11.760;2023-07-31T07:51:43;4.70;;;1.70;;
71648;SDS011;70112;45.624;11.760;2023-07-31T07:54:08;5.60;;;2.00;;
71648;SDS011;70112;45.624;11.760;2023-07-31T07:56:34;3.10;;;1.90;;
71648;SDS011;70112;45.624;11.760;2023-07-31T07:59:01;2.20;;;1.90;;
71648;SDS011;70112;45.624;11.760;2023-07-31T08:01:26;4.00;;;1.80;;
71648;SDS011;70112;45.624;11.760;2023-07-31T08:03:52;5.60;;;1.90;;
71648;SDS011;70112;45.624;11.760;2023-07-31T08:06:17;9.40;;;2.20;;
71648;SDS011;70112;45.624;11.760;2023-07-31T08:08:43;6.10;;;2.40;;
71648;SDS011;70112;45.624;11.760;2023-07-31T08:11:08;3.40;;;2.00;;
71648;SDS011;70112;45.624;11.760;2023-07-31T08:13:34;2.30;;;2.00;;
71648;SDS011;70112;45.624;11.760;2023-07-31T08:16:02;4.10;;;1.90;;
71648;SDS011;70112;45.624;11.760;2023-07-31T08:18:28;1.90;;;1.60;;
71648;SDS011;70112;45.624;11.760;2023-07-31T08:20:53;3.50;;;1.80;;
71648;SDS011;70112;45.624;11.760;2023-07-31T08:23:19;3.10;;;2.00;;
71648;SDS011;70112;45.624;11.760;2023-07-31T08:25:45;6.00;;;2.00;;
71648;SDS011;70112;45.624;11.760;2023-07-31T08:28:10;1.90;;;1.60;;
71648;SDS011;70112;45.624;11.760;2023-07-31T08:30:35;3.30;;;2.00;;
71648;SDS011;70112;45.624;11.760;2023-07-31T08:33:01;3.40;;;1.70;;
71648;SDS011;70112;45.624;11.760;2023-07-31T08:35:28;5.40;;;2.20;;
71648;SDS011;70112;45.624;11.760;2023-07-31T08:37:54;7.80;;;2.10;;
71648;SDS011;70112;45.624;11.760;2023-07-31T08:40:19;3.10;;;1.90;;
71648;SDS011;70112;45.624;11.760;2023-07-31T08:42:48;2.00;;;1.60;;
71648;SDS011;70112;45.624;11.760;2023-07-31T08:45:19;6.00;;;2.00;;
71648;SDS011;70112;45.624;11.760;2023-07-31T08:47:47;7.40;;;2.10;;
71648;SDS011;70112;45.624;11.760;2023-07-31T08:50:15;9.00;;;2.10;;
71648;SDS011;70112;45.624;11.760;2023-07-31T08:52:42;2.80;;;1.90;;
71648;SDS011;70112;45.624;11.760;2023-07-31T08:55:08;3.10;;;2.10;;
71648;SDS011;70112;45.624;11.760;2023-07-31T08:57:36;6.80;;;2.10;;
71648;SDS011;70112;45.624;11.760;2023-07-31T09:00:04;4.60;;;1.90;;
71648;SDS011;70112;45.624;11.760;2023-07-31T09:02:38;4.30;;;1.90;;
71648;SDS011;70112;45.624;11.760;2023-07-31T09:05:12;5.30;;;2.00;;
71648;SDS011;70112;45.624;11.760;2023-07-31T09:07:38;5.70;;;2.00;;
71648;SDS011;70112;45.624;11.760;2023-07-31T09:10:04;4.70;;;1.90;;
71648;SDS011;70112;45.624;11.760;2023-07-31T09:12:30;6.00;;;1.90;;
71648;SDS011;70112;45.624;11.760;2023-07-31T09:14:59;4.40;;;2.00;;
71648;SDS011;70112;45.624;11.760;2023-07-31T09:17:30;3.00;;;1.60;;
71648;SDS011;70112;45.624;11.760;2023-07-31T09:19:56;6.10;;;2.00;;
71648;SDS011;70112;45.624;11.760;2023-07-31T09:22:34;4.00;;;1.70;;
71648;SDS011;70112;45.624;11.760;2023-07-31T09:25:19;3.10;;;1.70;;
71648;SDS011;70112;45.624;11.760;2023-07-31T09:27:59;4.20;;;1.70;;
71648;SDS011;70112;45.624;11.760;2023-07-31T09:30:27;3.10;;;1.50;;
71648;SDS011;70112;45.624;11.760;2023-07-31T09:33:06;8.80;;;1.90;;
71648;SDS011;70112;45.624;11.760;2023-07-31T09:35:35;7.00;;;2.00;;
71648;SDS011;70112;45.624;11.760;2023-07-31T09:38:07;6.70;;;1.90;;
71648;SDS011;70112;45.624;11.760;2023-07-31T09:40:35;4.80;;;1.80;;
71648;SDS011;70112;45.624;11.760;2023-07-31T09:43:10;5.80;;;2.10;;
71648;SDS011;70112;45.624;11.760;2023-07-31T09:45:43;3.80;;;2.00;;
71648;SDS011;70112;45.624;11.760;2023-07-31T09:48:11;4.30;;;1.60;;
71648;SDS011;70112;45.624;11.760;2023-07-31T09:50:38;2.20;;;1.50;;
71648;SDS011;70112;45.624;11.760;2023-07-31T09:53:06;3.70;;;1.80;;
71648;SDS011;70112;45.624;11.760;2023-07-31T09:55:32;5.60;;;1.90;;
71648;SDS011;70112;45.624;11.760;2023-07-31T09:57:58;4.50;;;2.00;;
71648;SDS011;70112;45.624;11.760;2023-07-31T10:00:24;4.40;;;2.10;;
71648;SDS011;70112;45.624;11.760;2023-07-31T10:02:54;7.90;;;2.00;;
71648;SDS011;70112;45.624;11.760;2023-07-31T10:05:23;4.00;;;2.10;;
71648;SDS011;70112;45.624;11.760;2023-07-31T10:08:01;4.50;;;2.20;;
71648;SDS011;70112;45.624;11.760;2023-07-31T10:10:28;3.80;;;2.20;;
71648;SDS011;70112;45.624;11.760;2023-07-31T10:12:56;6.00;;;2.10;;
71648;SDS011;70112;45.624;11.760;2023-07-31T10:15:22;3.60;;;1.80;;
71648;SDS011;70112;45.624;11.760;2023-07-31T10:17:49;4.00;;;1.60;;
71648;SDS011;70112;45.624;11.760;2023-07-31T10:20:16;6.50;;;1.90;;
71648;SDS011;70112;45.624;11.760;2023-07-31T10:22:43;6.60;;;2.50;;
71648;SDS011;70112;45.624;11.760;2023-07-31T10:25:09;3.60;;;1.60;;
71648;SDS011;70112;45.624;11.760;2023-07-31T10:27:36;5.80;;;1.80;;
71648;SDS011;70112;45.624;11.760;2023-07-31T10:30:05;5.70;;;1.90;;
71648;SDS011;70112;45.624;11.760;2023-07-31T10:32:34;1.90;;;1.60;;
71648;SDS011;70112;45.624;11.760;2023-07-31T10:35:01;2.90;;;1.90;;
71648;SDS011;70112;45.624;11.760;2023-07-31T10:37:30;4.90;;;1.80;;
71648;SDS011;70112;45.624;11.760;2023-07-31T10:40:06;2.20;;;1.80;;
71648;SDS011;70112;45.624;11.760;2023-07-31T10:45:42;8.80;;;1.60;;
71648;SDS011;70112;45.624;11.760;2023-07-31T10:48:17;1.90;;;1.60;;
71648;SDS011;70112;45.624;11.760;2023-07-31T10:50:56;2.80;;;1.60;;
71648;SDS011;70112;45.624;11.760;2023-07-31T10:53:26;3.30;;;1.90;;
71648;SDS011;70112;45.624;11.760;2023-07-31T10:55:58;4.20;;;1.60;;
71648;SDS011;70112;45.624;11.760;2023-07-31T10:58:28;3.00;;;1.80;;
71648;SDS011;70112;45.624;11.760;2023-07-31T11:00:59;3.30;;;1.70;;
71648;SDS011;70112;45.624;11.760;2023-07-31T11:03:27;2.20;;;1.50;;
71648;SDS011;70112;45.624;11.760;2023-07-31T11:06:05;3.50;;;2.00;;
71648;SDS011;70112;45.624;11.760;2023-07-31T11:08:33;3.30;;;1.80;;
71648;SDS011;70112;45.624;11.760;2023-07-31T11:15:58;3.10;;;1.80;;
71648;SDS011;70112;45.624;11.760;2023-07-31T11:18:26;2.50;;;1.60;;
71648;SDS011;70112;45.624;11.760;2023-07-31T11:20:53;6.70;;;1.90;;
71648;SDS011;70112;45.624;11.760;2023-07-31T11:23:19;5.20;;;2.20;;
71648;SDS011;70112;45.624;11.760;2023-07-31T11:25:45;2.00;;;1.60;;
71648;SDS011;70112;45.624;11.760;2023-07-31T11:28:13;3.70;;;1.70;;
71648;SDS011;70112;45.624;11.760;2023-07-31T11:30:41;4.20;;;1.80;;
71648;SDS011;70112;45.624;11.760;2023-07-31T11:33:09;2.30;;;1.70;;
71648;SDS011;70112;45.624;11.760;2023-07-31T11:35:42;4.60;;;1.80;;
71648;SDS011;70112;45.624;11.760;2023-07-31T11:38:27;3.30;;;1.60;;
71648;SDS011;70112;45.624;11.760;2023-07-31T11:40:55;3.30;;;1.70;;
71648;SDS011;70112;45.624;11.760;2023-07-31T11:43:24;1.90;;;1.70;;
71648;SDS011;70112;45.624;11.760;2023-07-31T11:45:55;5.80;;;1.70;;
71648;SDS011;70112;45.624;11.760;2023-07-31T11:48:27;4.00;;;1.70;;
71648;SDS011;70112;45.624;11.760;2023-07-31T11:51:05;2.40;;;1.90;;
71648;SDS011;70112;45.624;11.760;2023-07-31T11:53:36;3.20;;;1.80;;
71648;SDS011;70112;45.624;11.760;2023-07-31T11:56:14;8.00;;;1.50;;
71648;SDS011;70112;45.624;11.760;2023-07-31T13:04:31;5.00;;;1.70;;
71648;SDS011;70112;45.624;11.760;2023-07-31T13:06:57;3.30;;;1.80;;
71648;SDS011;70112;45.624;11.760;2023-07-31T13:09:22;2.30;;;1.70;;
71648;SDS011;70112;45.624;11.760;2023-07-31T13:11:48;1.70;;;1.50;;
71648;SDS011;70112;45.624;11.760;2023-07-31T13:14:13;2.00;;;1.80;;
71648;SDS011;70112;45.624;11.760;2023-07-31T13:16:39;6.40;;;1.80;;
71648;SDS011;70112;45.624;11.760;2023-07-31T13:19:04;5.90;;;2.00;;
71648;SDS011;70112;45.624;11.760;2023-07-31T13:21:30;7.50;;;1.50;;
71648;SDS011;70112;45.624;11.760;2023-07-31T13:23:55;4.10;;;1.70;;
71648;SDS011;70112;45.624;11.760;2023-07-31T13:26:23;4.10;;;2.00;;
71648;SDS011;70112;45.624;11.760;2023-07-31T13:28:48;2.40;;;1.90;;
71648;SDS011;70112;45.624;11.760;2023-07-31T13:31:14;3.40;;;1.60;;
71648;SDS011;70112;45.624;11.760;2023-07-31T13:33:39;4.10;;;1.70;;
71648;SDS011;70112;45.624;11.760;2023-07-31T13:36:05;3.10;;;1.60;;
71648;SDS011;70112;45.624;11.760;2023-07-31T13:38:31;4.90;;;2.10;;
71648;SDS011;70112;45.624;11.760;2023-07-31T13:40:56;2.60;;;1.70;;
71648;SDS011;70112;45.624;11.760;2023-07-31T13:43:22;2.00;;;1.80;;
71648;SDS011;70112;45.624;11.760;2023-07-31T13:45:47;2.20;;;1.80;;
71648;SDS011;70112;45.624;11.760;2023-07-31T13:48:13;3.20;;;1.90;;
71648;SDS011;70112;45.624;11.760;2023-07-31T13:50:38;3.40;;;1.90;;
71648;SDS011;70112;45.624;11.760;2023-07-31T13:53:03;3.80;;;2.00;;
71648;SDS011;70112;45.624;11.760;2023-07-31T13:55:29;2.30;;;1.80;;
71648;SDS011;70112;45.624;11.760;2023-07-31T13:57:54;2.80;;;1.70;;
71648;SDS011;70112;45.624;11.760;2023-07-31T14:00:20;2.60;;;1.80;;
71648;SDS011;70112;45.624;11.760;2023-07-31T14:02:45;2.00;;;1.80;;
71648;SDS011;70112;45.624;11.760;2023-07-31T14:05:11;5.60;;;2.00;;
71648;SDS011;70112;45.624;11.760;2023-07-31T14:07:36;4.70;;;1.80;;
71648;SDS011;70112;45.624;11.760;2023-07-31T14:10:02;2.40;;;1.80;;
71648;SDS011;70112;45.624;11.760;2023-07-31T14:12:29;4.20;;;1.60;;
71648;SDS011;70112;45.624;11.760;2023-07-31T14:14:55;4.20;;;2.20;;
71648;SDS011;70112;45.624;11.760;2023-07-31T14:17:21;4.80;;;2.00;;
71648;SDS011;70112;45.624;11.760;2023-07-31T14:19:46;4.50;;;1.90;;
71648;SDS011;70112;45.624;11.760;2023-07-31T14:22:12;3.90;;;2.60;;
71648;SDS011;70112;45.624;11.760;2023-07-31T14:24:38;4.30;;;1.90;;
71648;SDS011;70112;45.624;11.760;2023-07-31T14:27:04;3.20;;;1.90;;
71648;SDS011;70112;45.624;11.760;2023-07-31T14:29:30;2.90;;;1.60;;
71648;SDS011;70112;45.624;11.760;2023-07-31T14:31:55;1.70;;;1.60;;
71648;SDS011;70112;45.624;11.760;2023-07-31T14:34:21;2.40;;;1.60;;
71648;SDS011;70112;45.624;11.760;2023-07-31T14:36:47;7.00;;;2.10;;
71648;SDS011;70112;45.624;11.760;2023-07-31T14:39:12;2.00;;;1.70;;
71648;SDS011;70112;45.624;11.760;2023-07-31T14:41:38;1.80;;;1.60;;
71648;SDS011;70112;45.624;11.760;2023-07-31T14:44:03;1.70;;;1.60;;
71648;SDS011;70112;45.624;11.760;2023-07-31T14:46:29;5.40;;;1.80;;
71648;SDS011;70112;45.624;11.760;2023-07-31T14:48:54;2.00;;;1.80;;
71648;SDS011;70112;45.624;11.760;2023-07-31T14:51:20;2.70;;;1.80;;
71648;SDS011;70112;45.624;11.760;2023-07-31T14:53:46;4.70;;;2.10;;
71648;SDS011;70112;45.624;11.760;2023-07-31T14:56:12;8.60;;;2.20;;
71648;SDS011;70112;45.624;11.760;2023-07-31T14:58:38;4.70;;;2.10;;
71648;SDS011;70112;45.624;11.760;2023-07-31T15:01:03;2.50;;;2.00;;
71648;SDS011;70112;45.624;11.760;2023-07-31T15:03:29;2.30;;;1.60;;
71648;SDS011;70112;45.624;11.760;2023-07-31T15:05:54;3.40;;;2.00;;
71648;SDS011;70112;45.624;11.760;2023-07-31T15:08:20;2.80;;;1.60;;
71648;SDS011;70112;45.624;11.760;2023-07-31T15:10:45;2.00;;;1.80;;
71648;SDS011;70112;45.624;11.760;2023-07-31T15:13:11;7.20;;;2.10;;
71648;SDS011;70112;45.624;11.760;2023-07-31T15:15:36;3.30;;;1.70;;
71648;SDS011;70112;45.624;11.760;2023-07-31T15:18:02;2.10;;;1.90;;
71648;SDS011;70112;45.624;11.760;2023-07-31T15:20:28;4.00;;;1.90;;
71648;SDS011;70112;45.624;11.760;2023-07-31T15:22:55;2.80;;;1.90;;
71648;SDS011;70112;45.624;11.760;2023-07-31T15:25:21;1.90;;;1.70;;
71648;SDS011;70112;45.624;11.760;2023-07-31T15:27:46;4.20;;;1.80;;
71648;SDS011;70112;45.624;11.760;2023-07-31T15:30:12;1.60;;;1.50;;
71648;SDS011;70112;45.624;11.760;2023-07-31T15:32:38;3.50;;;1.70;;
71648;SDS011;70112;45.624;11.760;2023-07-31T15:35:05;2.70;;;1.90;;
71648;SDS011;70112;45.624;11.760;2023-07-31T15:37:31;1.70;;;1.50;;
71648;SDS011;70112;45.624;11.760;2023-07-31T15:39:56;1.90;;;1.70;;
71648;SDS011;70112;45.624;11.760;2023-07-31T15:42:22;2.10;;;1.70;;
71648;SDS011;70112;45.624;11.760;2023-07-31T15:44:47;4.20;;;2.00;;
71648;SDS011;70112;45.624;11.760;2023-07-31T15:47:13;5.20;;;1.80;;
71648;SDS011;70112;45.624;11.760;2023-07-31T15:49:38;4.00;;;2.10;;
71648;SDS011;70112;45.624;11.760;2023-07-31T15:52:05;7.20;;;1.90;;
71648;SDS011;70112;45.624;11.760;2023-07-31T15:54:31;4.00;;;1.90;;
71648;SDS011;70112;45.624;11.760;2023-07-31T15:56:56;6.60;;;1.90;;
71648;SDS011;70112;45.624;11.760;2023-07-31T15:59:23;6.60;;;2.10;;
71648;SDS011;70112;45.624;11.760;2023-07-31T16:01:48;8.40;;;2.00;;
71648;SDS011;70112;45.624;11.760;2023-07-31T16:04:14;1.90;;;1.70;;
71648;SDS011;70112;45.624;11.760;2023-07-31T16:06:39;1.70;;;1.60;;
71648;SDS011;70112;45.624;11.760;2023-07-31T16:09:05;2.70;;;1.90;;
71648;SDS011;70112;45.624;11.760;2023-07-31T16:11:30;2.40;;;1.70;;